sensor_id;sensor_type;location;lat;lon;timestamp;P1;durP1;ratioP1;P2;durP2;ratioP2
51907;SDS011;39320;53.214;6.556;2022-09-30T00:01:44;4.05;;;3.20;;
51907;SDS011;39320;53.214;6.556;2022-09-30T00:04:18;3.15;;;2.85;;
51907;SDS011;39320;53.214;6.556;2022-09-30T00:06:45;4.40;;;3.40;;
51907;SDS011;39320;53.214;6.556;2022-09-30T00:09:11;4.38;;;3.03;;
51907;SDS011;39320;53.214;6.556;2022-09-30T00:11:38;3.63;;;2.70;;
51907;SDS011;39320;53.214;6.556;2022-09-30T00:14:05;4.00;;;3.35;;
51907;SDS011;39320;53.214;6.556;2022-09-30T00:16:34;4.03;;;3.03;;
51907;SDS011;39320;53.214;6.556;2022-09-30T00:19:00;3.75;;;3.13;;
51907;SDS011;39320;53.214;6.556;2022-09-30T00:21:28;3.10;;;2.80;;
51907;SDS011;39320;53.214;6.556;2022-09-30T00:23:54;4.30;;;2.63;;
51907;SDS011;39320;53.214;6.556;2022-09-30T00:26:20;5.13;;;2.83;;
51907;SDS011;39320;53.214;6.556;2022-09-30T00:28:51;3.20;;;2.80;;
51907;SDS011;39320;53.214;6.556;2022-09-30T00:31:19;4.03;;;3.05;;
51907;SDS011;39320;53.214;6.556;2022-09-30T00:33:46;4.97;;;2.80;;
51907;SDS011;39320;53.214;6.556;2022-09-30T00:36:31;4.35;;;2.88;;
51907;SDS011;39320;53.214;6.556;2022-09-30T00:39:03;3.40;;;2.72;;
51907;SDS011;39320;53.214;6.556;2022-09-30T00:41:29;3.20;;;2.80;;
51907;SDS011;39320;53.214;6.556;2022-09-30T00:43:56;4.82;;;2.63;;
51907;SDS011;39320;53.214;6.556;2022-09-30T00:49:05;3.13;;;2.83;;
51907;SDS011;39320;53.214;6.556;2022-09-30T00:51:41;3.40;;;3.10;;
51907;SDS011;39320;53.214;6.556;2022-09-30T00:54:15;2.92;;;2.63;;
51907;SDS011;39320;53.214;6.556;2022-09-30T00:56:51;3.42;;;2.90;;
51907;SDS011;39320;53.214;6.556;2022-09-30T00:59:24;3.13;;;2.92;;
51907;SDS011;39320;53.214;6.556;2022-09-30T01:01:53;2.78;;;2.58;;
51907;SDS011;39320;53.214;6.556;2022-09-30T01:04:20;4.10;;;2.60;;
51907;SDS011;39320;53.214;6.556;2022-09-30T01:06:49;2.80;;;2.47;;
51907;SDS011;39320;53.214;6.556;2022-09-30T01:09:15;2.63;;;2.42;;
51907;SDS011;39320;53.214;6.556;2022-09-30T01:11:42;2.50;;;2.30;;
51907;SDS011;39320;53.214;6.556;2022-09-30T01:14:12;3.20;;;2.58;;
51907;SDS011;39320;53.214;6.556;2022-09-30T01:31:13;4.18;;;2.58;;
51907;SDS011;39320;53.214;6.556;2022-09-30T01:44:23;3.10;;;2.58;;
51907;SDS011;39320;53.214;6.556;2022-09-30T01:46:51;3.97;;;3.08;;
51907;SDS011;39320;53.214;6.556;2022-09-30T01:52:50;2.70;;;2.50;;
51907;SDS011;39320;53.214;6.556;2022-09-30T01:55:22;2.90;;;2.55;;
51907;SDS011;39320;53.214;6.556;2022-09-30T02:00:43;3.13;;;2.70;;
51907;SDS011;39320;53.214;6.556;2022-09-30T02:03:18;2.90;;;2.65;;
51907;SDS011;39320;53.214;6.556;2022-09-30T02:05:55;3.47;;;2.33;;
51907;SDS011;39320;53.214;6.556;2022-09-30T02:08:31;2.90;;;2.45;;
51907;SDS011;39320;53.214;6.556;2022-09-30T02:11:17;3.03;;;2.33;;
51907;SDS011;39320;53.214;6.556;2022-09-30T02:22:04;2.40;;;2.20;;
51907;SDS011;39320;53.214;6.556;2022-09-30T02:24:35;2.63;;;2.42;;
51907;SDS011;39320;53.214;6.556;2022-09-30T02:27:03;2.50;;;2.08;;
51907;SDS011;39320;53.214;6.556;2022-09-30T02:29:33;2.42;;;2.22;;
51907;SDS011;39320;53.214;6.556;2022-09-30T02:32:08;2.58;;;2.38;;
51907;SDS011;39320;53.214;6.556;2022-09-30T02:34:56;2.55;;;2.35;;
51907;SDS011;39320;53.214;6.556;2022-09-30T02:37:29;2.67;;;2.47;;
51907;SDS011;39320;53.214;6.556;2022-09-30T02:42:36;3.15;;;2.50;;
51907;SDS011;39320;53.214;6.556;2022-09-30T02:45:11;2.65;;;2.45;;
51907;SDS011;39320;53.214;6.556;2022-09-30T02:50:47;2.60;;;2.40;;
51907;SDS011;39320;53.214;6.556;2022-09-30T02:58:31;2.47;;;2.03;;
51907;SDS011;39320;53.214;6.556;2022-09-30T03:01:00;2.53;;;2.20;;
51907;SDS011;39320;53.214;6.556;2022-09-30T03:03:31;1.88;;;1.77;;
51907;SDS011;39320;53.214;6.556;2022-09-30T03:06:01;2.13;;;1.92;;
51907;SDS011;39320;53.214;6.556;2022-09-30T03:08:27;2.42;;;2.17;;
51907;SDS011;39320;53.214;6.556;2022-09-30T03:10:53;2.30;;;2.10;;
51907;SDS011;39320;53.214;6.556;2022-09-30T03:27:12;2.13;;;1.92;;
51907;SDS011;39320;53.214;6.556;2022-09-30T03:32:25;2.58;;;2.38;;
51907;SDS011;39320;53.214;6.556;2022-09-30T03:46:44;2.30;;;2.10;;
51907;SDS011;39320;53.214;6.556;2022-09-30T03:48:55;2.00;;;1.80;;
51907;SDS011;39320;53.214;6.556;2022-09-30T03:51:25;2.60;;;2.40;;
51907;SDS011;39320;53.214;6.556;2022-09-30T03:53:54;2.53;;;2.10;;
51907;SDS011;39320;53.214;6.556;2022-09-30T03:56:24;2.22;;;2.03;;
51907;SDS011;39320;53.214;6.556;2022-09-30T03:58:51;2.40;;;2.22;;
51907;SDS011;39320;53.214;6.556;2022-09-30T04:01:17;2.08;;;1.70;;
51907;SDS011;39320;53.214;6.556;2022-09-30T04:03:54;2.80;;;1.90;;
51907;SDS011;39320;53.214;6.556;2022-09-30T04:06:21;2.00;;;1.80;;
51907;SDS011;39320;53.214;6.556;2022-09-30T04:08:48;2.10;;;1.92;;
51907;SDS011;39320;53.214;6.556;2022-09-30T04:11:15;2.60;;;2.17;;
51907;SDS011;39320;53.214;6.556;2022-09-30T04:13:41;2.30;;;2.10;;
51907;SDS011;39320;53.214;6.556;2022-09-30T04:16:08;2.90;;;2.30;;
51907;SDS011;39320;53.214;6.556;2022-09-30T04:18:34;2.33;;;2.13;;
51907;SDS011;39320;53.214;6.556;2022-09-30T04:21:04;3.50;;;2.08;;
51907;SDS011;39320;53.214;6.556;2022-09-30T04:23:32;1.90;;;1.80;;
51907;SDS011;39320;53.214;6.556;2022-09-30T04:26:02;3.13;;;2.25;;
51907;SDS011;39320;53.214;6.556;2022-09-30T04:28:30;2.20;;;1.92;;
51907;SDS011;39320;53.214;6.556;2022-09-30T04:30:59;2.10;;;1.90;;
51907;SDS011;39320;53.214;6.556;2022-09-30T04:33:26;2.28;;;2.08;;
51907;SDS011;39320;53.214;6.556;2022-09-30T04:35:56;2.35;;;2.15;;
51907;SDS011;39320;53.214;6.556;2022-09-30T04:38:23;2.78;;;2.40;;
51907;SDS011;39320;53.214;6.556;2022-09-30T04:40:50;2.15;;;1.95;;
51907;SDS011;39320;53.214;6.556;2022-09-30T04:43:17;2.60;;;2.40;;
51907;SDS011;39320;53.214;6.556;2022-09-30T04:45:43;2.80;;;2.55;;
51907;SDS011;39320;53.214;6.556;2022-09-30T04:48:11;2.53;;;2.33;;
51907;SDS011;39320;53.214;6.556;2022-09-30T04:50:37;2.40;;;2.20;;
51907;SDS011;39320;53.214;6.556;2022-09-30T04:53:03;2.50;;;2.30;;
51907;SDS011;39320;53.214;6.556;2022-09-30T04:55:29;2.78;;;2.58;;
51907;SDS011;39320;53.214;6.556;2022-09-30T04:57:55;2.67;;;2.47;;
51907;SDS011;39320;53.214;6.556;2022-09-30T05:00:21;3.00;;;2.70;;
51907;SDS011;39320;53.214;6.556;2022-09-30T05:02:49;2.85;;;2.65;;
51907;SDS011;39320;53.214;6.556;2022-09-30T05:05:15;3.70;;;2.42;;
51907;SDS011;39320;53.214;6.556;2022-09-30T05:07:41;2.42;;;2.22;;
51907;SDS011;39320;53.214;6.556;2022-09-30T05:10:08;2.97;;;2.78;;
51907;SDS011;39320;53.214;6.556;2022-09-30T05:12:38;2.88;;;2.67;;
51907;SDS011;39320;53.214;6.556;2022-09-30T05:15:08;2.53;;;2.33;;
51907;SDS011;39320;53.214;6.556;2022-09-30T05:17:34;2.67;;;2.47;;
51907;SDS011;39320;53.214;6.556;2022-09-30T05:20:00;2.75;;;2.55;;
51907;SDS011;39320;53.214;6.556;2022-09-30T05:22:28;2.75;;;2.55;;
51907;SDS011;39320;53.214;6.556;2022-09-30T05:24:53;3.00;;;2.70;;
51907;SDS011;39320;53.214;6.556;2022-09-30T05:27:20;2.80;;;2.60;;
51907;SDS011;39320;53.214;6.556;2022-09-30T05:29:47;2.80;;;2.50;;
51907;SDS011;39320;53.214;6.556;2022-09-30T05:32:13;2.90;;;2.70;;
51907;SDS011;39320;53.214;6.556;2022-09-30T05:34:39;2.85;;;2.65;;
51907;SDS011;39320;53.214;6.556;2022-09-30T05:37:05;2.70;;;2.50;;
51907;SDS011;39320;53.214;6.556;2022-09-30T05:39:32;2.88;;;2.53;;
51907;SDS011;39320;53.214;6.556;2022-09-30T05:41:58;3.05;;;2.85;;
51907;SDS011;39320;53.214;6.556;2022-09-30T05:44:24;2.97;;;2.78;;
51907;SDS011;39320;53.214;6.556;2022-09-30T05:46:50;3.05;;;2.70;;
51907;SDS011;39320;53.214;6.556;2022-09-30T05:49:16;3.22;;;2.65;;
51907;SDS011;39320;53.214;6.556;2022-09-30T05:51:41;3.17;;;2.88;;
51907;SDS011;39320;53.214;6.556;2022-09-30T05:54:08;3.03;;;2.78;;
51907;SDS011;39320;53.214;6.556;2022-09-30T05:56:35;2.80;;;2.60;;
51907;SDS011;39320;53.214;6.556;2022-09-30T05:59:03;3.13;;;2.83;;
51907;SDS011;39320;53.214;6.556;2022-09-30T06:01:29;3.08;;;2.78;;
51907;SDS011;39320;53.214;6.556;2022-09-30T06:03:55;2.90;;;2.70;;
51907;SDS011;39320;53.214;6.556;2022-09-30T06:06:21;3.60;;;3.10;;
51907;SDS011;39320;53.214;6.556;2022-09-30T06:08:47;2.83;;;2.53;;
51907;SDS011;39320;53.214;6.556;2022-09-30T06:11:14;3.13;;;2.75;;
51907;SDS011;39320;53.214;6.556;2022-09-30T06:13:43;3.40;;;2.90;;
51907;SDS011;39320;53.214;6.556;2022-09-30T06:16:10;5.22;;;2.90;;
51907;SDS011;39320;53.214;6.556;2022-09-30T06:18:36;3.15;;;2.90;;
51907;SDS011;39320;53.214;6.556;2022-09-30T06:21:06;2.97;;;2.65;;
51907;SDS011;39320;53.214;6.556;2022-09-30T06:23:33;3.20;;;2.90;;
51907;SDS011;39320;53.214;6.556;2022-09-30T06:26:01;4.57;;;3.38;;
51907;SDS011;39320;53.214;6.556;2022-09-30T06:28:29;3.95;;;3.55;;
51907;SDS011;39320;53.214;6.556;2022-09-30T06:30:55;3.50;;;3.20;;
51907;SDS011;39320;53.214;6.556;2022-09-30T06:33:27;3.45;;;3.05;;
51907;SDS011;39320;53.214;6.556;2022-09-30T06:35:53;3.95;;;3.05;;
51907;SDS011;39320;53.214;6.556;2022-09-30T06:38:19;3.08;;;2.78;;
51907;SDS011;39320;53.214;6.556;2022-09-30T06:40:47;3.88;;;3.50;;
51907;SDS011;39320;53.214;6.556;2022-09-30T06:43:17;3.15;;;2.70;;
51907;SDS011;39320;53.214;6.556;2022-09-30T06:45:47;3.78;;;2.83;;
51907;SDS011;39320;53.214;6.556;2022-09-30T06:48:15;3.35;;;3.05;;
51907;SDS011;39320;53.214;6.556;2022-09-30T06:50:42;3.05;;;2.78;;
51907;SDS011;39320;53.214;6.556;2022-09-30T06:53:09;3.05;;;2.75;;
51907;SDS011;39320;53.214;6.556;2022-09-30T06:55:35;2.83;;;2.63;;
51907;SDS011;39320;53.214;6.556;2022-09-30T06:58:03;2.95;;;2.75;;
51907;SDS011;39320;53.214;6.556;2022-09-30T07:00:31;3.33;;;2.42;;
51907;SDS011;39320;53.214;6.556;2022-09-30T07:02:57;2.88;;;2.30;;
51907;SDS011;39320;53.214;6.556;2022-09-30T07:05:23;2.90;;;2.60;;
51907;SDS011;39320;53.214;6.556;2022-09-30T07:07:50;2.63;;;2.42;;
51907;SDS011;39320;53.214;6.556;2022-09-30T07:10:17;2.80;;;2.60;;
51907;SDS011;39320;53.214;6.556;2022-09-30T07:12:48;2.92;;;2.67;;
51907;SDS011;39320;53.214;6.556;2022-09-30T07:15:15;2.97;;;2.78;;
51907;SDS011;39320;53.214;6.556;2022-09-30T07:17:41;2.40;;;2.20;;
51907;SDS011;39320;53.214;6.556;2022-09-30T07:20:08;2.85;;;2.53;;
51907;SDS011;39320;53.214;6.556;2022-09-30T07:22:33;2.95;;;2.60;;
51907;SDS011;39320;53.214;6.556;2022-09-30T07:25:00;2.47;;;2.20;;
51907;SDS011;39320;53.214;6.556;2022-09-30T07:27:28;2.72;;;2.05;;
51907;SDS011;39320;53.214;6.556;2022-09-30T07:29:56;2.55;;;2.35;;
51907;SDS011;39320;53.214;6.556;2022-09-30T07:32:23;2.38;;;2.17;;
51907;SDS011;39320;53.214;6.556;2022-09-30T07:34:49;2.83;;;2.30;;
51907;SDS011;39320;53.214;6.556;2022-09-30T07:37:16;3.08;;;2.67;;
51907;SDS011;39320;53.214;6.556;2022-09-30T07:39:43;2.90;;;2.55;;
51907;SDS011;39320;53.214;6.556;2022-09-30T07:42:11;2.75;;;2.53;;
51907;SDS011;39320;53.214;6.556;2022-09-30T07:44:50;2.55;;;2.35;;
51907;SDS011;39320;53.214;6.556;2022-09-30T07:47:22;3.03;;;2.72;;
51907;SDS011;39320;53.214;6.556;2022-09-30T07:49:48;2.55;;;2.35;;
51907;SDS011;39320;53.214;6.556;2022-09-30T07:52:23;2.97;;;2.70;;
51907;SDS011;39320;53.214;6.556;2022-09-30T07:54:55;3.33;;;2.55;;
51907;SDS011;39320;53.214;6.556;2022-09-30T07:57:21;4.07;;;2.88;;
51907;SDS011;39320;53.214;6.556;2022-09-30T07:59:47;2.88;;;2.65;;
51907;SDS011;39320;53.214;6.556;2022-09-30T08:02:14;3.65;;;2.65;;
51907;SDS011;39320;53.214;6.556;2022-09-30T08:04:42;3.00;;;2.70;;
51907;SDS011;39320;53.214;6.556;2022-09-30T08:07:08;2.65;;;2.40;;
51907;SDS011;39320;53.214;6.556;2022-09-30T08:09:44;3.00;;;2.47;;
51907;SDS011;39320;53.214;6.556;2022-09-30T08:12:13;3.17;;;2.88;;
51907;SDS011;39320;53.214;6.556;2022-09-30T08:14:38;3.97;;;2.85;;
51907;SDS011;39320;53.214;6.556;2022-09-30T08:17:08;3.13;;;2.78;;
51907;SDS011;39320;53.214;6.556;2022-09-30T08:19:34;3.10;;;2.80;;
51907;SDS011;39320;53.214;6.556;2022-09-30T08:22:00;4.47;;;2.95;;
51907;SDS011;39320;53.214;6.556;2022-09-30T08:24:29;3.40;;;3.10;;
51907;SDS011;39320;53.214;6.556;2022-09-30T08:26:55;3.40;;;3.10;;
51907;SDS011;39320;53.214;6.556;2022-09-30T08:29:22;4.00;;;3.45;;
51907;SDS011;39320;53.214;6.556;2022-09-30T08:31:48;4.43;;;3.05;;
51907;SDS011;39320;53.214;6.556;2022-09-30T08:34:15;3.25;;;2.72;;
51907;SDS011;39320;53.214;6.556;2022-09-30T08:36:41;3.65;;;3.28;;
51907;SDS011;39320;53.214;6.556;2022-09-30T08:39:07;3.78;;;3.05;;
51907;SDS011;39320;53.214;6.556;2022-09-30T08:46:36;4.07;;;3.67;;
51907;SDS011;39320;53.214;6.556;2022-09-30T08:49:24;4.03;;;3.45;;
51907;SDS011;39320;53.214;6.556;2022-09-30T08:51:56;4.45;;;3.88;;
51907;SDS011;39320;53.214;6.556;2022-09-30T08:54:24;4.53;;;3.50;;
51907;SDS011;39320;53.214;6.556;2022-09-30T08:56:55;3.95;;;3.55;;
51907;SDS011;39320;53.214;6.556;2022-09-30T08:59:35;4.35;;;3.95;;
51907;SDS011;39320;53.214;6.556;2022-09-30T09:04:47;5.97;;;3.40;;
51907;SDS011;39320;53.214;6.556;2022-09-30T09:15:49;4.90;;;4.00;;
51907;SDS011;39320;53.214;6.556;2022-09-30T09:21:54;4.78;;;4.25;;
51907;SDS011;39320;53.214;6.556;2022-09-30T09:24:37;4.78;;;4.28;;
51907;SDS011;39320;53.214;6.556;2022-09-30T09:27:20;5.18;;;4.55;;
51907;SDS011;39320;53.214;6.556;2022-09-30T09:32:41;5.60;;;4.72;;
51907;SDS011;39320;53.214;6.556;2022-09-30T09:35:20;5.55;;;5.03;;
51907;SDS011;39320;53.214;6.556;2022-09-30T09:49:58;5.05;;;4.55;;
51907;SDS011;39320;53.214;6.556;2022-09-30T09:55:27;5.68;;;4.47;;
51907;SDS011;39320;53.214;6.556;2022-09-30T09:58:06;5.28;;;4.78;;
51907;SDS011;39320;53.214;6.556;2022-09-30T10:00:41;4.63;;;4.15;;
51907;SDS011;39320;53.214;6.556;2022-09-30T10:05:40;4.93;;;4.25;;
51907;SDS011;39320;53.214;6.556;2022-09-30T10:08:16;4.45;;;4.05;;
51907;SDS011;39320;53.214;6.556;2022-09-30T10:10:54;3.88;;;3.38;;
51907;SDS011;39320;53.214;6.556;2022-09-30T10:13:23;3.47;;;3.17;;
51907;SDS011;39320;53.214;6.556;2022-09-30T10:15:54;3.05;;;2.75;;
51907;SDS011;39320;53.214;6.556;2022-09-30T10:20:57;2.70;;;2.47;;
51907;SDS011;39320;53.214;6.556;2022-09-30T10:23:27;2.92;;;2.35;;
51907;SDS011;39320;53.214;6.556;2022-09-30T10:34:08;2.88;;;2.45;;
51907;SDS011;39320;53.214;6.556;2022-09-30T10:36:44;3.45;;;2.92;;
51907;SDS011;39320;53.214;6.556;2022-09-30T10:39:24;4.30;;;3.33;;
51907;SDS011;39320;53.214;6.556;2022-09-30T10:42:00;3.58;;;3.28;;
51907;SDS011;39320;53.214;6.556;2022-09-30T10:44:31;4.07;;;3.72;;
51907;SDS011;39320;53.214;6.556;2022-09-30T10:47:06;4.28;;;3.50;;
51907;SDS011;39320;53.214;6.556;2022-09-30T10:49:44;3.22;;;2.92;;
51907;SDS011;39320;53.214;6.556;2022-09-30T10:52:23;4.45;;;4.05;;
51907;SDS011;39320;53.214;6.556;2022-09-30T10:54:55;5.97;;;4.53;;
51907;SDS011;39320;53.214;6.556;2022-09-30T10:57:31;4.97;;;4.20;;
51907;SDS011;39320;53.214;6.556;2022-09-30T10:59:59;4.05;;;3.35;;
51907;SDS011;39320;53.214;6.556;2022-09-30T11:05:33;3.45;;;2.92;;
51907;SDS011;39320;53.214;6.556;2022-09-30T11:08:21;3.20;;;2.70;;
51907;SDS011;39320;53.214;6.556;2022-09-30T11:11:16;2.55;;;2.00;;
51907;SDS011;39320;53.214;6.556;2022-09-30T11:13:49;3.92;;;2.10;;
51907;SDS011;39320;53.214;6.556;2022-09-30T11:16:32;2.30;;;1.50;;
51907;SDS011;39320;53.214;6.556;2022-09-30T11:19:09;1.35;;;1.25;;
51907;SDS011;39320;53.214;6.556;2022-09-30T11:22:01;1.48;;;0.95;;
51907;SDS011;39320;53.214;6.556;2022-09-30T11:24:44;2.83;;;1.15;;
51907;SDS011;39320;53.214;6.556;2022-09-30T11:35:17;1.10;;;1.00;;
51907;SDS011;39320;53.214;6.556;2022-09-30T11:43:30;0.90;;;0.82;;
51907;SDS011;39320;53.214;6.556;2022-09-30T11:57:37;0.60;;;0.60;;
51907;SDS011;39320;53.214;6.556;2022-09-30T12:00:26;2.65;;;1.10;;
51907;SDS011;39320;53.214;6.556;2022-09-30T12:03:24;0.80;;;0.80;;
51907;SDS011;39320;53.214;6.556;2022-09-30T12:05:56;1.42;;;1.08;;
51907;SDS011;39320;53.214;6.556;2022-09-30T12:08:28;1.00;;;0.90;;
51907;SDS011;39320;53.214;6.556;2022-09-30T12:14:38;1.30;;;0.70;;
51907;SDS011;39320;53.214;6.556;2022-09-30T12:17:24;0.77;;;0.60;;
51907;SDS011;39320;53.214;6.556;2022-09-30T12:26:15;1.10;;;0.80;;
51907;SDS011;39320;53.214;6.556;2022-09-30T12:28:47;0.65;;;0.50;;
51907;SDS011;39320;53.214;6.556;2022-09-30T12:32:02;0.70;;;0.52;;
51907;SDS011;39320;53.214;6.556;2022-09-30T12:48:35;1.10;;;1.00;;
51907;SDS011;39320;53.214;6.556;2022-09-30T12:51:08;1.42;;;1.02;;
51907;SDS011;39320;53.214;6.556;2022-09-30T12:53:45;1.10;;;0.93;;
51907;SDS011;39320;53.214;6.556;2022-09-30T12:56:15;1.17;;;0.90;;
51907;SDS011;39320;53.214;6.556;2022-09-30T12:58:50;1.55;;;0.73;;
51907;SDS011;39320;53.214;6.556;2022-09-30T13:01:31;0.75;;;0.60;;
51907;SDS011;39320;53.214;6.556;2022-09-30T13:04:35;0.70;;;0.70;;
51907;SDS011;39320;53.214;6.556;2022-09-30T13:09:36;1.05;;;0.90;;
51907;SDS011;39320;53.214;6.556;2022-09-30T13:12:38;0.70;;;0.60;;
51907;SDS011;39320;53.214;6.556;2022-09-30T13:17:56;0.68;;;0.60;;
51907;SDS011;39320;53.214;6.556;2022-09-30T13:28:50;0.77;;;0.75;;
51907;SDS011;39320;53.214;6.556;2022-09-30T13:31:20;1.42;;;1.30;;
51907;SDS011;39320;53.214;6.556;2022-09-30T13:36:56;1.00;;;0.90;;
51907;SDS011;39320;53.214;6.556;2022-09-30T13:39:28;1.08;;;0.98;;
51907;SDS011;39320;53.214;6.556;2022-09-30T13:52:48;2.17;;;1.08;;
51907;SDS011;39320;53.214;6.556;2022-09-30T13:55:38;1.05;;;0.95;;
51907;SDS011;39320;53.214;6.556;2022-09-30T14:01:30;1.95;;;1.20;;
51907;SDS011;39320;53.214;6.556;2022-09-30T14:13:14;2.17;;;1.58;;
51907;SDS011;39320;53.214;6.556;2022-09-30T14:24:34;2.05;;;1.55;;
51907;SDS011;39320;53.214;6.556;2022-09-30T14:30:10;2.28;;;1.90;;
51907;SDS011;39320;53.214;6.556;2022-09-30T14:32:45;2.05;;;1.85;;
51907;SDS011;39320;53.214;6.556;2022-09-30T14:35:17;2.25;;;1.63;;
51907;SDS011;39320;53.214;6.556;2022-09-30T14:37:52;2.20;;;2.00;;
51907;SDS011;39320;53.214;6.556;2022-09-30T14:40:25;2.30;;;2.10;;
51907;SDS011;39320;53.214;6.556;2022-09-30T14:42:54;3.75;;;1.90;;
51907;SDS011;39320;53.214;6.556;2022-09-30T14:45:28;2.20;;;1.80;;
51907;SDS011;39320;53.214;6.556;2022-09-30T14:50:43;2.45;;;2.25;;
51907;SDS011;39320;53.214;6.556;2022-09-30T14:53:27;3.13;;;1.95;;
51907;SDS011;39320;53.214;6.556;2022-09-30T14:55:55;1.98;;;1.77;;
51907;SDS011;39320;53.214;6.556;2022-09-30T14:58:28;2.75;;;1.83;;
51907;SDS011;39320;53.214;6.556;2022-09-30T15:01:09;2.00;;;1.80;;
51907;SDS011;39320;53.214;6.556;2022-09-30T15:03:44;2.78;;;1.85;;
51907;SDS011;39320;53.214;6.556;2022-09-30T15:06:19;2.20;;;1.50;;
51907;SDS011;39320;53.214;6.556;2022-09-30T15:08:51;2.30;;;1.63;;
51907;SDS011;39320;53.214;6.556;2022-09-30T15:11:26;1.40;;;1.30;;
51907;SDS011;39320;53.214;6.556;2022-09-30T15:16:53;2.80;;;1.20;;
51907;SDS011;39320;53.214;6.556;2022-09-30T15:19:22;3.50;;;1.48;;
51907;SDS011;39320;53.214;6.556;2022-09-30T15:21:53;2.53;;;1.73;;
51907;SDS011;39320;53.214;6.556;2022-09-30T15:24:26;2.17;;;1.90;;
51907;SDS011;39320;53.214;6.556;2022-09-30T15:26:55;2.42;;;1.80;;
51907;SDS011;39320;53.214;6.556;2022-09-30T15:29:22;2.10;;;1.90;;
51907;SDS011;39320;53.214;6.556;2022-09-30T15:31:49;2.10;;;1.80;;
51907;SDS011;39320;53.214;6.556;2022-09-30T15:34:29;2.20;;;1.90;;
51907;SDS011;39320;53.214;6.556;2022-09-30T15:37:02;3.28;;;1.90;;
51907;SDS011;39320;53.214;6.556;2022-09-30T15:39:35;2.50;;;1.73;;
51907;SDS011;39320;53.214;6.556;2022-09-30T15:42:31;1.80;;;1.70;;
51907;SDS011;39320;53.214;6.556;2022-09-30T15:47:59;2.15;;;1.60;;
51907;SDS011;39320;53.214;6.556;2022-09-30T15:53:14;1.70;;;1.40;;
51907;SDS011;39320;53.214;6.556;2022-09-30T15:55:41;1.98;;;1.52;;
51907;SDS011;39320;53.214;6.556;2022-09-30T16:03:49;2.50;;;2.05;;
51907;SDS011;39320;53.214;6.556;2022-09-30T16:06:31;2.40;;;2.00;;
51907;SDS011;39320;53.214;6.556;2022-09-30T16:09:17;2.53;;;2.00;;
51907;SDS011;39320;53.214;6.556;2022-09-30T16:12:05;3.95;;;2.38;;
51907;SDS011;39320;53.214;6.556;2022-09-30T16:14:40;2.33;;;2.10;;
51907;SDS011;39320;53.214;6.556;2022-09-30T16:17:14;3.92;;;2.40;;
51907;SDS011;39320;53.214;6.556;2022-09-30T16:19:49;2.30;;;2.10;;
51907;SDS011;39320;53.214;6.556;2022-09-30T16:25:25;2.42;;;2.15;;
51907;SDS011;39320;53.214;6.556;2022-09-30T16:28:07;3.03;;;2.67;;
51907;SDS011;39320;53.214;6.556;2022-09-30T16:30:48;2.78;;;2.58;;
51907;SDS011;39320;53.214;6.556;2022-09-30T16:33:15;2.53;;;2.25;;
51907;SDS011;39320;53.214;6.556;2022-09-30T16:35:42;3.17;;;1.80;;
51907;SDS011;39320;53.214;6.556;2022-09-30T16:38:10;2.17;;;1.98;;
51907;SDS011;39320;53.214;6.556;2022-09-30T16:40:38;2.58;;;1.98;;
51907;SDS011;39320;53.214;6.556;2022-09-30T16:43:04;2.45;;;2.20;;
51907;SDS011;39320;53.214;6.556;2022-09-30T16:45:31;2.17;;;1.98;;
51907;SDS011;39320;53.214;6.556;2022-09-30T16:47:57;2.35;;;2.10;;
51907;SDS011;39320;53.214;6.556;2022-09-30T16:53:06;3.15;;;2.10;;
51907;SDS011;39320;53.214;6.556;2022-09-30T16:55:35;2.45;;;1.88;;
51907;SDS011;39320;53.214;6.556;2022-09-30T16:58:01;2.65;;;1.75;;
51907;SDS011;39320;53.214;6.556;2022-09-30T17:00:28;2.80;;;2.55;;
51907;SDS011;39320;53.214;6.556;2022-09-30T17:02:54;3.03;;;1.98;;
51907;SDS011;39320;53.214;6.556;2022-09-30T17:05:21;2.47;;;2.10;;
51907;SDS011;39320;53.214;6.556;2022-09-30T17:07:51;3.53;;;2.17;;
51907;SDS011;39320;53.214;6.556;2022-09-30T17:12:50;2.65;;;1.83;;
51907;SDS011;39320;53.214;6.556;2022-09-30T17:15:17;2.53;;;2.00;;
51907;SDS011;39320;53.214;6.556;2022-09-30T17:17:44;2.58;;;1.90;;
51907;SDS011;39320;53.214;6.556;2022-09-30T17:20:10;2.40;;;2.20;;
51907;SDS011;39320;53.214;6.556;2022-09-30T17:22:36;2.30;;;2.10;;
51907;SDS011;39320;53.214;6.556;2022-09-30T17:25:02;2.22;;;2.03;;
51907;SDS011;39320;53.214;6.556;2022-09-30T17:27:28;3.20;;;2.40;;
51907;SDS011;39320;53.214;6.556;2022-09-30T17:29:54;2.60;;;2.40;;
51907;SDS011;39320;53.214;6.556;2022-09-30T17:32:20;2.40;;;2.10;;
51907;SDS011;39320;53.214;6.556;2022-09-30T17:34:46;3.10;;;2.60;;
51907;SDS011;39320;53.214;6.556;2022-09-30T17:37:12;2.67;;;2.47;;
51907;SDS011;39320;53.214;6.556;2022-09-30T17:39:38;3.28;;;2.65;;
51907;SDS011;39320;53.214;6.556;2022-09-30T17:42:05;3.13;;;2.90;;
51907;SDS011;39320;53.214;6.556;2022-09-30T17:44:54;3.72;;;3.42;;
51907;SDS011;39320;53.214;6.556;2022-09-30T17:47:21;3.83;;;3.20;;
51907;SDS011;39320;53.214;6.556;2022-09-30T17:49:48;3.22;;;2.92;;
51907;SDS011;39320;53.214;6.556;2022-09-30T17:52:13;3.95;;;3.63;;
51907;SDS011;39320;53.214;6.556;2022-09-30T17:54:40;4.15;;;3.75;;
51907;SDS011;39320;53.214;6.556;2022-09-30T17:57:06;3.53;;;3.22;;
51907;SDS011;39320;53.214;6.556;2022-09-30T17:59:32;4.07;;;3.67;;
51907;SDS011;39320;53.214;6.556;2022-09-30T18:02:01;3.40;;;3.10;;
51907;SDS011;39320;53.214;6.556;2022-09-30T18:04:27;3.60;;;3.30;;
51907;SDS011;39320;53.214;6.556;2022-09-30T18:06:53;4.13;;;3.70;;
51907;SDS011;39320;53.214;6.556;2022-09-30T18:09:21;3.78;;;3.35;;
51907;SDS011;39320;53.214;6.556;2022-09-30T18:11:47;3.30;;;3.00;;
51907;SDS011;39320;53.214;6.556;2022-09-30T18:14:13;4.50;;;3.72;;
51907;SDS011;39320;53.214;6.556;2022-09-30T18:16:40;3.28;;;2.97;;
51907;SDS011;39320;53.214;6.556;2022-09-30T18:19:06;3.17;;;2.85;;
51907;SDS011;39320;53.214;6.556;2022-09-30T18:21:33;3.72;;;3.42;;
51907;SDS011;39320;53.214;6.556;2022-09-30T18:24:01;3.08;;;2.78;;
51907;SDS011;39320;53.214;6.556;2022-09-30T18:26:28;4.10;;;2.88;;
51907;SDS011;39320;53.214;6.556;2022-09-30T18:29:01;3.33;;;3.03;;
51907;SDS011;39320;53.214;6.556;2022-09-30T18:31:28;3.15;;;2.85;;
51907;SDS011;39320;53.214;6.556;2022-09-30T18:33:58;3.03;;;2.80;;
51907;SDS011;39320;53.214;6.556;2022-09-30T18:36:25;3.50;;;3.20;;
51907;SDS011;39320;53.214;6.556;2022-09-30T18:38:55;3.03;;;2.83;;
51907;SDS011;39320;53.214;6.556;2022-09-30T18:41:23;3.00;;;2.80;;
51907;SDS011;39320;53.214;6.556;2022-09-30T18:43:50;3.95;;;2.90;;
51907;SDS011;39320;53.214;6.556;2022-09-30T18:46:20;3.03;;;2.83;;
51907;SDS011;39320;53.214;6.556;2022-09-30T18:48:48;3.40;;;2.90;;
51907;SDS011;39320;53.214;6.556;2022-09-30T18:51:14;3.10;;;2.80;;
51907;SDS011;39320;53.214;6.556;2022-09-30T18:53:43;4.82;;;2.92;;
51907;SDS011;39320;53.214;6.556;2022-09-30T18:56:08;3.35;;;3.00;;
51907;SDS011;39320;53.214;6.556;2022-09-30T18:58:34;3.20;;;2.80;;
51907;SDS011;39320;53.214;6.556;2022-09-30T19:01:01;3.72;;;2.63;;
51907;SDS011;39320;53.214;6.556;2022-09-30T19:03:31;2.70;;;2.50;;
51907;SDS011;39320;53.214;6.556;2022-09-30T19:06:04;2.95;;;2.10;;
51907;SDS011;39320;53.214;6.556;2022-09-30T19:08:31;2.38;;;2.17;;
51907;SDS011;39320;53.214;6.556;2022-09-30T19:10:58;2.20;;;2.00;;
51907;SDS011;39320;53.214;6.556;2022-09-30T19:13:24;2.30;;;2.10;;
51907;SDS011;39320;53.214;6.556;2022-09-30T19:15:52;2.40;;;2.15;;
51907;SDS011;39320;53.214;6.556;2022-09-30T19:18:17;2.58;;;2.33;;
51907;SDS011;39320;53.214;6.556;2022-09-30T19:20:45;2.40;;;2.13;;
51907;SDS011;39320;53.214;6.556;2022-09-30T19:23:11;1.60;;;1.48;;
51907;SDS011;39320;53.214;6.556;2022-09-30T19:25:37;2.10;;;1.65;;
51907;SDS011;39320;53.214;6.556;2022-09-30T19:28:03;3.92;;;1.77;;
51907;SDS011;39320;53.214;6.556;2022-09-30T19:30:29;2.35;;;2.00;;